Vocklabruck, Austria
Current Conditions -  °F | °C
As of 8:50 PM on Friday 24 Oct 2014 (Local Time) from LOWL Reporting Station
Broken Clouds Broken Clouds  
Wind Chill: 46°   Ceiling: 5800
Heat Index: 46°   Visibility: 4mi
Dew Point: 45°   Wind: 2mph
Humidity: 93%   Direction: NA
Pressure: 30.18"   Gusts: NA
Location:  48.01°N, 13.65°E
Report Text: LOWL 241850Z VRB02KT 6000 FEW025 BKN058 08/07 Q1022 BECMG 4000 BR
Loading
Personal Weather Stations






























Interactive Weather Map
Tropical Storm Tracking
New forecast layout! Learn more

10-Day Weather Forecast

Advertisements
Track Severe Weather on mobile